Time;durP1;ratioP1;P1;durP2;ratioP2;P2;SDS_P1;SDS_P2;PMS_P1;PMS_P2;Temp;Humidity;BMP_temperature;BMP_pressure;BME280_temperature;BME280_humidity;BME280_pressure;Samples;Min_cycle;Max_cycle;Signal;HPM_P1;HPM_P2
2022/05/11 00:01:39;;;;;;;13.50;6.53;;;11.30;74.90;;;;;;4931043;29;20512;-79
2022/05/11 00:04:08;;;;;;;29.08;7.95;;;11.20;75.60;;;;;;4930541;29;20492;-77
2022/05/11 00:06:36;;;;;;;30.23;8.73;;;11.20;76.10;;;;;;4931739;29;20543;-78
2022/05/11 00:09:06;;;;;;;25.15;7.78;;;11.20;80.90;;;;;;4933879;29;20055;-77
2022/05/11 00:11:33;;;;;;;19.33;7.63;;;11.10;82.60;;;;;;4931480;29;20055;-76
2022/05/11 00:14:01;;;;;;;21.35;8.45;;;11.00;88.60;;;;;;4930266;29;20464;-78
2022/05/11 00:16:30;;;;;;;23.20;8.27;;;10.90;92.30;;;;;;4932547;29;20081;-73
2022/05/11 00:18:57;;;;;;;22.92;9.13;;;10.80;95.70;;;;;;4932376;29;20052;-73
2022/05/11 00:21:25;;;;;;;16.77;6.03;;;10.60;99.90;;;;;;4928160;29;20136;-73
2022/05/11 00:23:53;;;;;;;20.48;6.68;;;10.60;96.90;;;;;;4931245;29;20469;-73
2022/05/11 00:26:21;;;;;;;24.75;8.57;;;10.60;99.80;;;;;;4932215;29;20086;-73
2022/05/11 00:28:49;;;;;;;24.10;6.55;;;10.50;99.90;;;;;;4914227;29;20048;-74
2022/05/11 00:31:16;;;;;;;22.23;6.43;;;10.50;99.90;;;;;;4932438;29;20138;-73
2022/05/11 00:33:45;;;;;;;15.13;5.55;;;10.60;98.30;;;;;;4936757;29;20150;-73
2022/05/11 00:36:14;;;;;;;14.27;5.03;;;10.70;97.00;;;;;;4936867;29;20048;-74
2022/05/11 00:38:41;;;;;;;16.63;5.35;;;10.70;94.80;;;;;;4934635;29;20054;-73
2022/05/11 00:41:09;;;;;;;11.35;5.57;;;10.80;92.90;;;;;;4918529;29;20078;-72
2022/05/11 00:43:38;;;;;;;11.82;6.15;;;10.90;93.00;;;;;;4934292;29;20504;-74
2022/05/11 00:46:19;;;;;;;13.63;5.85;;;10.90;96.10;;;;;;4937011;29;20072;-73
2022/05/11 00:51:40;;;;;;;18.55;7.15;;;10.90;94.60;;;;;;4935725;29;20055;-73
2022/05/11 00:54:09;;;;;;;14.75;6.47;;;10.90;98.80;;;;;;4935570;29;20047;-73
2022/05/11 00:56:39;;;;;;;17.40;6.50;;;10.80;97.20;;;;;;4917980;29;20051;-72
2022/05/11 00:59:13;;;;;;;18.17;7.88;;;10.80;99.30;;;;;;4935045;29;20123;-72
2022/05/11 01:01:41;;;;;;;14.13;7.65;;;10.80;98.80;;;;;;4918937;29;20138;-72
2022/05/11 01:04:12;;;;;;;21.38;8.55;;;10.70;99.00;;;;;;4935248;29;20586;-73
2022/05/11 01:06:41;;;;;;;15.80;8.40;;;10.60;99.30;;;;;;4933419;29;20044;-72
2022/05/11 01:09:10;;;;;;;18.20;8.23;;;10.60;99.90;;;;;;4933280;29;20079;-73
2022/05/11 01:11:39;;;;;;;17.90;8.90;;;10.50;99.90;;;;;;4936731;29;20086;-72
2022/05/11 01:14:09;;;;;;;22.75;7.85;;;10.40;99.90;;;;;;4935344;29;20051;-73
2022/05/11 01:16:38;;;;;;;17.15;7.13;;;10.40;99.90;;;;;;4933194;29;20043;-74
2022/05/11 01:19:07;;;;;;;19.38;7.07;;;10.40;99.90;;;;;;4933255;29;20496;-73
2022/05/11 01:21:47;;;;;;;24.20;7.35;;;10.40;99.80;;;;;;4917911;29;20054;-73
2022/05/11 01:24:28;;;;;;;22.25;8.43;;;10.40;99.90;;;;;;4934987;29;20079;-73
2022/05/11 01:26:56;;;;;;;19.38;7.38;;;10.40;99.90;;;;;;4934662;29;20056;-73
2022/05/11 01:29:23;;;;;;;20.75;7.45;;;10.40;99.90;;;;;;4934158;29;20059;-73
2022/05/11 01:31:51;;;;;;;23.88;7.72;;;10.30;99.90;;;;;;4919197;29;20051;-73
2022/05/11 01:34:23;;;;;;;17.17;6.45;;;10.20;99.90;;;;;;4933026;29;20048;-74
2022/05/11 01:36:55;;;;;;;16.25;6.63;;;10.20;99.90;;;;;;4924677;29;20047;-73
2022/05/11 01:39:23;;;;;;;13.07;7.00;;;10.20;99.90;;;;;;4933554;29;20086;-73
2022/05/11 01:41:54;;;;;;;18.77;7.75;;;10.20;99.90;;;;;;4936231;29;20345;-72
2022/05/11 01:44:22;;;;;;;22.45;7.30;;;10.20;99.90;;;;;;4933192;29;20052;-72
2022/05/11 01:46:52;;;;;;;16.33;7.20;;;10.10;99.90;;;;;;4916710;29;20103;-72
2022/05/11 01:49:20;;;;;;;18.17;7.00;;;10.20;99.90;;;;;;4934748;29;20062;-73
2022/05/11 01:51:48;;;;;;;19.70;7.45;;;10.20;99.90;;;;;;4936045;29;20043;-73
2022/05/11 01:54:15;;;;;;;19.13;7.10;;;10.10;99.90;;;;;;4931525;29;20146;-74
2022/05/11 01:56:42;;;;;;;14.05;7.15;;;10.20;99.90;;;;;;4931929;29;20058;-73
2022/05/11 01:59:11;;;;;;;14.75;6.35;;;10.10;99.90;;;;;;4933916;29;20143;-73
2022/05/11 02:01:40;;;;;;;14.35;6.80;;;10.20;99.90;;;;;;4932217;29;20067;-73
2022/05/11 02:07:49;;;;;;;15.48;6.95;;;10.10;99.90;;;;;;4932414;29;20048;-74
2022/05/11 02:09:43;;;;;;;14.65;6.75;;;10.10;99.90;;;;;;4935698;29;20059;-73
2022/05/11 02:12:11;;;;;;;11.35;6.60;;;10.20;99.90;;;;;;4933370;29;20420;-74
2022/05/11 02:14:41;;;;;;;18.75;6.70;;;10.20;99.90;;;;;;4933426;29;20059;-73
2022/05/11 02:17:08;;;;;;;15.05;6.20;;;10.10;99.90;;;;;;4932973;29;20055;-73
2022/05/11 02:19:35;;;;;;;18.15;6.65;;;10.20;99.90;;;;;;4934283;29;20052;-74
2022/05/11 02:22:02;;;;;;;15.13;6.57;;;10.20;99.90;;;;;;4931265;29;20048;-74
2022/05/11 02:24:30;;;;;;;19.48;6.75;;;10.30;99.90;;;;;;4934163;29;20066;-73
2022/05/11 02:27:00;;;;;;;16.67;7.70;;;10.30;99.90;;;;;;4933199;29;20142;-74
2022/05/11 02:29:27;;;;;;;14.13;7.05;;;10.30;99.90;;;;;;4933026;29;20055;-74
2022/05/11 02:31:56;;;;;;;16.90;6.25;;;10.30;99.90;;;;;;4915821;29;20047;-73
2022/05/11 02:37:19;;;;;;;16.23;7.15;;;10.40;99.90;;;;;;4887252;29;20064;-72
2022/05/11 02:39:48;;;;;;;22.63;7.35;;;10.40;99.90;;;;;;4923251;29;20062;-73
2022/05/11 02:42:17;;;;;;;11.93;6.50;;;10.50;99.90;;;;;;4915674;29;20039;-73
2022/05/11 02:44:44;;;;;;;19.55;8.15;;;10.50;99.90;;;;;;4934959;29;20054;-73
2022/05/11 02:47:13;;;;;;;12.90;7.25;;;10.40;99.40;;;;;;4917464;29;20047;-73
2022/05/11 02:49:40;;;;;;;16.50;7.00;;;10.40;99.60;;;;;;4931689;29;20056;-73
2022/05/11 02:52:08;;;;;;;14.23;7.85;;;10.50;99.00;;;;;;4931527;29;20059;-72
2022/05/11 02:54:35;;;;;;;11.65;5.93;;;10.50;99.30;;;;;;4934016;29;20091;-73
2022/05/11 02:57:03;;;;;;;19.75;7.07;;;10.60;98.30;;;;;;4916025;29;20075;-73
2022/05/11 02:59:30;;;;;;;16.65;6.35;;;10.60;97.70;;;;;;4927502;29;20052;-72
2022/05/11 03:01:58;;;;;;;17.00;6.70;;;10.70;97.20;;;;;;4933212;29;20473;-73
2022/05/11 03:04:26;;;;;;;16.27;6.50;;;10.80;96.80;;;;;;4933254;29;20052;-73
2022/05/11 03:06:54;;;;;;;12.93;7.13;;;10.90;96.10;;;;;;4932755;29;20172;-72
2022/05/11 03:09:21;;;;;;;15.00;6.70;;;10.90;95.30;;;;;;4932516;29;20087;-73
2022/05/11 03:11:48;;;;;;;19.38;6.28;;;11.00;94.80;;;;;;4931303;29;20098;-72
2022/05/11 03:14:16;;;;;;;19.15;7.00;;;11.00;94.90;;;;;;4933181;29;20083;-74
2022/05/11 03:16:44;;;;;;;9.50;5.90;;;11.00;94.10;;;;;;4915814;29;20128;-73
2022/05/11 03:19:11;;;;;;;11.55;6.95;;;11.10;93.80;;;;;;4930533;29;20101;-73
2022/05/11 03:21:40;;;;;;;11.07;6.07;;;11.10;93.40;;;;;;4916985;29;20520;-73
2022/05/11 03:24:08;;;;;;;14.88;5.85;;;11.20;92.60;;;;;;4917466;29;20525;-73
2022/05/11 03:26:35;;;;;;;12.27;6.28;;;11.30;92.30;;;;;;4930530;29;20043;-75
2022/05/11 03:29:05;;;;;;;16.50;6.18;;;11.30;91.90;;;;;;4915736;29;20047;-74
2022/05/11 03:31:33;;;;;;;19.45;6.65;;;11.40;91.70;;;;;;4915797;29;20051;-76
2022/05/11 03:36:48;;;;;;;9.70;5.22;;;11.60;90.80;;;;;;4912184;29;20052;-75
2022/05/11 03:39:16;;;;;;;11.38;6.15;;;11.70;90.20;;;;;;4933532;29;20048;-75
2022/05/11 03:41:45;;;;;;;8.60;5.10;;;11.80;89.90;;;;;;4934377;29;20048;-75
2022/05/11 03:44:13;;;;;;;12.38;5.45;;;11.90;90.10;;;;;;4925563;29;20052;-74
2022/05/11 03:46:40;;;;;;;14.20;5.40;;;11.90;88.20;;;;;;4932116;29;20285;-75
2022/05/11 03:49:11;;;;;;;17.38;5.28;;;12.00;87.40;;;;;;4933249;29;20043;-75
2022/05/11 03:51:38;;;;;;;13.00;4.35;;;12.10;85.90;;;;;;4934135;29;20067;-75
2022/05/11 03:54:07;;;;;;;9.38;4.10;;;12.20;84.40;;;;;;4914873;29;20232;-72
2022/05/11 03:56:34;;;;;;;11.52;4.30;;;12.30;84.60;;;;;;4931304;29;20051;-72
2022/05/11 03:59:02;;;;;;;21.05;4.18;;;12.30;83.00;;;;;;4915935;29;20095;-72
2022/05/11 04:01:30;;;;;;;10.23;4.20;;;12.40;82.00;;;;;;4916694;29;20055;-71
2022/05/11 04:03:57;;;;;;;12.30;3.78;;;12.40;81.30;;;;;;4930648;29;20106;-73
2022/05/11 04:06:25;;;;;;;12.23;3.83;;;12.50;80.10;;;;;;4930806;29;20136;-72
2022/05/11 04:08:52;;;;;;;5.75;2.78;;;12.60;78.90;;;;;;4932907;29;20099;-72
2022/05/11 04:11:23;;;;;;;7.47;3.33;;;12.70;77.60;;;;;;4930471;29;20176;-73
2022/05/11 04:13:51;;;;;;;7.38;3.70;;;12.80;78.10;;;;;;4932125;29;20062;-76
2022/05/11 04:16:19;;;;;;;11.32;3.55;;;12.90;78.60;;;;;;4932098;29;20055;-76
2022/05/11 04:18:47;;;;;;;19.13;4.22;;;13.00;76.60;;;;;;4932914;29;20075;-71
2022/05/11 04:21:15;;;;;;;13.25;3.65;;;13.20;75.40;;;;;;4930036;29;20099;-72
2022/05/11 04:23:45;;;;;;;11.80;3.75;;;13.40;74.70;;;;;;4947878;29;20047;-70
2022/05/11 04:26:14;;;;;;;18.75;3.67;;;13.40;73.80;;;;;;4937269;29;20053;-75
2022/05/11 04:28:44;;;;;;;15.85;3.90;;;13.50;73.20;;;;;;4933999;29;20044;-76
2022/05/11 04:31:13;;;;;;;13.45;3.20;;;13.60;73.00;;;;;;4930638;29;20064;-71
2022/05/11 04:33:41;;;;;;;16.17;3.25;;;13.60;72.80;;;;;;4930368;29;20059;-72
2022/05/11 04:36:09;;;;;;;10.98;2.85;;;13.70;72.10;;;;;;4930284;29;20484;-71
2022/05/11 04:38:36;;;;;;;7.43;3.90;;;13.70;72.00;;;;;;4932643;29;20353;-71
2022/05/11 04:41:04;;;;;;;13.13;3.63;;;13.80;72.80;;;;;;4914389;29;20393;-73
2022/05/11 04:43:31;;;;;;;10.27;3.33;;;13.80;71.60;;;;;;4929625;29;20055;-73
2022/05/11 04:46:00;;;;;;;9.90;3.45;;;13.80;71.50;;;;;;4932544;29;20048;-72
2022/05/11 04:48:28;;;;;;;14.98;3.65;;;13.80;71.40;;;;;;4927377;29;20075;-72
2022/05/11 04:51:00;;;;;;;10.50;3.47;;;13.80;71.10;;;;;;4928472;29;20059;-76
2022/05/11 04:53:31;;;;;;;12.35;3.00;;;13.80;70.80;;;;;;4933374;29;20048;-81
2022/05/11 04:56:00;;;;;;;12.73;3.60;;;13.90;70.30;;;;;;4933967;29;20088;-76
2022/05/11 04:58:30;;;;;;;11.77;2.90;;;14.00;69.50;;;;;;4925913;29;20067;-76
2022/05/11 05:00:58;;;;;;;11.00;2.22;;;14.10;68.30;;;;;;4930493;29;20082;-75
2022/05/11 05:03:30;;;;;;;19.42;3.38;;;14.20;67.90;;;;;;4932710;29;20048;-79
2022/05/11 05:05:58;;;;;;;13.27;3.05;;;14.40;67.10;;;;;;4933669;29;20552;-74
2022/05/11 05:08:25;;;;;;;13.20;4.10;;;14.50;66.00;;;;;;4928986;29;20047;-75
2022/05/11 05:10:52;;;;;;;10.77;3.10;;;14.60;64.60;;;;;;4930809;29;20114;-73
2022/05/11 05:13:20;;;;;;;14.48;3.80;;;14.60;64.50;;;;;;4931675;29;20154;-76
2022/05/11 05:15:56;;;;;;;8.38;2.92;;;14.70;64.70;;;;;;4932284;29;20058;-72
2022/05/11 05:18:23;;;;;;;16.92;3.47;;;14.80;63.70;;;;;;4932068;29;20102;-74
2022/05/11 05:20:53;;;;;;;17.92;2.83;;;14.90;62.60;;;;;;4935558;29;20055;-78
2022/05/11 05:23:20;;;;;;;15.25;2.85;;;15.10;62.80;;;;;;4935470;29;20135;-77
2022/05/11 05:25:47;;;;;;;11.32;2.47;;;15.30;62.60;;;;;;4917857;29;20048;-75
2022/05/11 05:31:10;;;;;;;15.68;2.28;;;16.00;59.10;;;;;;4934586;29;20130;-77
2022/05/11 05:33:40;;;;;;;15.68;3.35;;;16.50;56.90;;;;;;4934871;29;20103;-82
2022/05/11 05:36:10;;;;;;;9.82;2.40;;;16.90;56.30;;;;;;4933410;29;20457;-80
2022/05/11 05:38:38;;;;;;;9.88;2.45;;;17.30;55.60;;;;;;4933995;29;20047;-81
2022/05/11 05:41:06;;;;;;;7.40;2.85;;;17.70;54.10;;;;;;4937370;29;20051;-80
2022/05/11 05:43:34;;;;;;;7.72;2.08;;;17.90;54.00;;;;;;4932655;29;20098;-75
2022/05/11 05:46:01;;;;;;;12.65;2.53;;;18.10;53.30;;;;;;4936802;29;20067;-80
2022/05/11 05:48:33;;;;;;;11.32;2.25;;;18.20;52.80;;;;;;4935107;29;20052;-74
2022/05/11 05:51:08;;;;;;;16.60;3.03;;;18.00;52.30;;;;;;4916204;29;20107;-74
2022/05/11 05:53:47;;;;;;;15.60;2.90;;;17.80;52.40;;;;;;4931702;29;20094;-75
2022/05/11 05:56:15;;;;;;;13.52;2.58;;;17.40;53.00;;;;;;4936072;29;20055;-74
2022/05/11 05:58:45;;;;;;;12.52;3.40;;;17.20;53.40;;;;;;4936807;28;20513;-75
2022/05/11 06:01:14;;;;;;;8.40;2.72;;;17.10;54.30;;;;;;4933563;29;20075;-74
2022/05/11 06:03:41;;;;;;;12.52;2.80;;;17.00;54.40;;;;;;4931511;29;20052;-75
2022/05/11 06:06:10;;;;;;;8.65;2.88;;;17.10;54.30;;;;;;4939260;28;20067;-79
2022/05/11 06:08:38;;;;;;;11.13;3.20;;;17.20;54.60;;;;;;4946863;28;20047;-78
2022/05/11 06:11:08;;;;;;;12.05;3.50;;;17.20;54.30;;;;;;4947181;29;20047;-79
2022/05/11 06:13:36;;;;;;;13.73;2.67;;;17.30;54.50;;;;;;4937004;29;20050;-77
2022/05/11 06:16:09;;;;;;;6.68;2.80;;;17.30;54.10;;;;;;4940353;29;20075;-77
2022/05/11 06:18:37;;;;;;;15.40;2.50;;;17.30;54.10;;;;;;4937993;29;20048;-77
2022/05/11 06:21:05;;;;;;;7.85;2.53;;;17.30;54.50;;;;;;4941640;29;20452;-79
2022/05/11 06:23:32;;;;;;;13.38;3.30;;;17.40;54.60;;;;;;4943503;28;20047;-79
2022/05/11 06:26:00;;;;;;;9.80;2.65;;;17.60;54.20;;;;;;4944212;28;20059;-79
2022/05/11 06:28:29;;;;;;;9.75;2.53;;;17.70;53.80;;;;;;4928345;29;20155;-80
2022/05/11 06:30:56;;;;;;;9.05;2.90;;;17.70;53.30;;;;;;4915969;29;20051;-79
2022/05/11 06:33:23;;;;;;;10.02;2.38;;;17.70;53.80;;;;;;4933365;29;20058;-80
2022/05/11 06:35:50;;;;;;;9.95;2.20;;;17.80;53.10;;;;;;4917968;29;20398;-80
2022/05/11 06:38:17;;;;;;;9.90;2.63;;;17.80;52.30;;;;;;4934917;29;20134;-78
2022/05/11 06:40:49;;;;;;;10.88;2.20;;;17.70;52.30;;;;;;4932692;29;20146;-79
2022/05/11 06:43:19;;;;;;;5.15;2.03;;;17.70;52.20;;;;;;4913805;29;20139;-78
2022/05/11 06:45:48;;;;;;;8.10;2.65;;;17.50;51.70;;;;;;4944262;29;20118;-78
2022/05/11 06:48:15;;;;;;;10.15;2.47;;;17.50;52.10;;;;;;4943682;28;20139;-80
2022/05/11 06:50:43;;;;;;;9.10;2.55;;;17.50;51.80;;;;;;4935585;28;20071;-78
2022/05/11 06:53:12;;;;;;;10.95;2.08;;;17.60;52.00;;;;;;4936876;28;20047;-79
2022/05/11 07:01:12;;;;;;;15.98;1.83;;;18.70;49.70;;;;;;4936266;29;20051;-81
2022/05/11 07:03:40;;;;;;;6.40;2.47;;;19.00;49.20;;;;;;4936463;29;20051;-80
2022/05/11 07:06:08;;;;;;;19.33;2.70;;;19.00;49.30;;;;;;4934598;29;20071;-78
2022/05/11 07:08:46;;;;;;;14.10;2.33;;;19.10;49.30;;;;;;4891050;28;20402;-79
2022/05/11 07:13:58;;;;;;;6.72;2.30;;;18.80;49.10;;;;;;4931851;29;20135;-80
2022/05/11 07:16:29;;;;;;;10.07;1.83;;;18.60;49.90;;;;;;4927518;29;20584;-79
2022/05/11 07:18:56;;;;;;;9.88;2.13;;;18.60;50.00;;;;;;4942089;29;20072;-81
2022/05/11 07:21:23;;;;;;;11.10;2.25;;;18.80;49.80;;;;;;4940014;29;20052;-81
2022/05/11 07:23:51;;;;;;;17.75;2.47;;;18.80;49.60;;;;;;4933241;29;20527;-80
2022/05/11 07:26:18;;;;;;;16.42;2.22;;;18.60;50.00;;;;;;4933013;29;20059;-79
2022/05/11 07:28:45;;;;;;;12.90;2.00;;;18.50;50.30;;;;;;4932181;29;20564;-78
2022/05/11 07:31:15;;;;;;;12.00;2.38;;;18.50;50.20;;;;;;4941587;29;20050;-78
2022/05/11 07:33:45;;;;;;;9.00;2.30;;;18.40;50.30;;;;;;4934459;29;20522;-77
2022/05/11 07:36:12;;;;;;;5.88;1.60;;;18.40;50.40;;;;;;4931565;29;20054;-79
2022/05/11 07:38:40;;;;;;;7.40;2.00;;;18.40;50.60;;;;;;4931502;29;20051;-78
2022/05/11 07:41:08;;;;;;;10.63;2.00;;;18.30;50.60;;;;;;4931928;29;20052;-78
2022/05/11 07:43:37;;;;;;;8.98;1.92;;;18.40;50.10;;;;;;4932760;29;20524;-78
2022/05/11 07:46:06;;;;;;;8.40;2.83;;;18.50;50.20;;;;;;4929202;29;20054;-78
2022/05/11 07:48:33;;;;;;;7.00;2.00;;;18.50;50.30;;;;;;4926557;29;20043;-83
2022/05/11 07:51:02;;;;;;;7.88;2.30;;;18.50;50.40;;;;;;4935960;29;20059;-81
2022/05/11 07:53:30;;;;;;;12.75;2.17;;;18.50;50.20;;;;;;4916037;28;20496;-80
2022/05/11 08:01:23;;;;;;;9.07;1.90;;;18.40;49.30;;;;;;4935523;29;20527;-78
2022/05/11 08:03:51;;;;;;;10.10;2.05;;;18.40;49.70;;;;;;4932743;29;20056;-79
2022/05/11 08:06:19;;;;;;;12.68;2.55;;;18.40;49.50;;;;;;4933396;29;20580;-80
2022/05/11 08:08:48;;;;;;;14.55;2.63;;;18.80;49.90;;;;;;4937276;29;20058;-79
2022/05/11 08:11:18;;;;;;;16.27;2.15;;;19.10;48.90;;;;;;4941383;29;20398;-77
2022/05/11 08:13:45;;;;;;;8.90;2.35;;;19.30;48.90;;;;;;4932252;29;20058;-78
2022/05/11 08:16:13;;;;;;;9.18;2.55;;;19.60;48.40;;;;;;4914757;29;20060;-76
2022/05/11 08:18:40;;;;;;;9.40;2.22;;;20.00;47.30;;;;;;4933519;29;20079;-76
2022/05/11 08:21:10;;;;;;;11.63;2.15;;;20.20;47.40;;;;;;4933435;29;20071;-75
2022/05/11 08:23:39;;;;;;;11.50;1.77;;;20.50;46.80;;;;;;4931544;29;20052;-79
2022/05/11 08:26:07;;;;;;;12.93;2.47;;;21.20;45.80;;;;;;4932930;29;20055;-76
2022/05/11 08:28:35;;;;;;;15.02;2.30;;;21.40;45.70;;;;;;4926754;29;20047;-76
2022/05/11 08:33:50;;;;;;;9.23;2.05;;;21.90;44.70;;;;;;4927645;29;20094;-76
2022/05/11 08:36:20;;;;;;;12.77;2.60;;;22.00;44.30;;;;;;4926533;29;20051;-76
2022/05/11 08:38:50;;;;;;;12.32;1.92;;;22.10;44.20;;;;;;4932630;29;20062;-76
2022/05/11 08:41:30;;;;;;;7.25;2.25;;;22.60;43.30;;;;;;4928150;29;20460;-77
2022/05/11 08:44:01;;;;;;;11.20;2.70;;;22.70;43.20;;;;;;4924166;29;20051;-78
2022/05/11 08:46:45;;;;;;;14.90;2.00;;;22.60;43.20;;;;;;4931032;29;20056;-76
2022/05/11 08:49:22;;;;;;;12.55;1.70;;;22.40;43.30;;;;;;4931953;29;20055;-76
2022/05/11 08:51:57;;;;;;;12.80;2.42;;;22.10;43.60;;;;;;4909509;29;20465;-76
2022/05/11 08:54:35;;;;;;;17.23;2.25;;;22.00;44.00;;;;;;4933659;29;20606;-76
2022/05/11 08:57:08;;;;;;;10.48;2.15;;;22.10;43.60;;;;;;4934696;29;20072;-76
2022/05/11 08:59:37;;;;;;;11.30;1.95;;;21.80;43.80;;;;;;4933640;29;20052;-77
2022/05/11 09:02:13;;;;;;;10.82;2.28;;;21.30;44.20;;;;;;4932118;29;20067;-77
2022/05/11 09:04:45;;;;;;;9.27;1.95;;;20.80;45.00;;;;;;4935015;29;20059;-76
2022/05/11 09:07:12;;;;;;;11.73;1.83;;;20.30;45.80;;;;;;4935029;29;20055;-79
2022/05/11 09:09:42;;;;;;;10.82;2.00;;;19.80;46.60;;;;;;4932385;29;20148;-76
2022/05/11 09:12:11;;;;;;;8.15;2.38;;;19.40;47.00;;;;;;4931586;29;20055;-77
2022/05/11 09:14:41;;;;;;;12.07;2.28;;;19.10;47.50;;;;;;4934982;29;20449;-75
2022/05/11 09:17:25;;;;;;;10.00;2.03;;;18.80;47.80;;;;;;4934731;29;20138;-78
2022/05/11 09:20:08;;;;;;;8.88;1.90;;;18.50;48.60;;;;;;4932933;29;20052;-76
2022/05/11 09:22:37;;;;;;;11.50;2.47;;;18.30;49.10;;;;;;4931658;29;20052;-76
2022/05/11 09:25:17;;;;;;;9.40;1.80;;;18.30;49.10;;;;;;4932197;29;20508;-78
2022/05/11 09:27:46;;;;;;;10.50;2.25;;;18.40;49.20;;;;;;4930570;29;20147;-76
2022/05/11 09:30:20;;;;;;;8.88;1.98;;;18.60;49.10;;;;;;4931397;29;20146;-77
2022/05/11 09:32:53;;;;;;;8.70;2.30;;;18.80;48.70;;;;;;4934977;29;20059;-77
2022/05/11 09:35:25;;;;;;;;;;;18.90;48.50;;;;;;4934959;29;20063;-76
2022/05/11 09:38:00;;;;;;;3.85;2.05;;;19.30;48.30;;;;;;4931647;29;19994;-77
2022/05/11 09:40:31;;;;;;;12.27;2.75;;;19.60;47.80;;;;;;4933638;29;20111;-76
2022/05/11 09:43:00;;;;;;;7.78;2.83;;;20.00;47.40;;;;;;4933109;29;20081;-76
2022/05/11 09:45:39;;;;;;;6.40;2.65;;;20.60;46.50;;;;;;4930836;29;20035;-75
2022/05/11 09:48:20;;;;;;;7.22;1.83;;;21.10;45.80;;;;;;4930248;29;20138;-77
2022/05/11 09:50:52;;;;;;;7.47;2.00;;;21.70;44.60;;;;;;4933297;29;20142;-76
2022/05/11 09:53:25;;;;;;;;;;;21.80;44.00;;;;;;4934230;29;20051;-76
2022/05/11 09:55:55;;;;;;;6.07;2.30;;;21.40;44.10;;;;;;4914904;29;20399;-76
2022/05/11 09:58:31;;;;;;;8.90;2.00;;;20.90;44.60;;;;;;4932262;29;20052;-78
2022/05/11 10:01:12;;;;;;;10.13;2.00;;;20.30;45.50;;;;;;4931578;29;20051;-77
2022/05/11 10:03:45;;;;;;;11.63;1.92;;;19.60;46.50;;;;;;4931062;29;20063;-76
2022/05/11 10:06:15;;;;;;;8.23;2.10;;;19.00;47.30;;;;;;4930525;29;20055;-77
2022/05/11 10:08:45;;;;;;;8.02;2.42;;;18.60;48.30;;;;;;4933277;29;20099;-76
2022/05/11 10:11:21;;;;;;;17.63;2.55;;;18.50;48.70;;;;;;4933912;29;20406;-78
2022/05/11 10:13:59;;;;;;;11.68;2.08;;;18.40;49.00;;;;;;4930289;29;20055;-78
2022/05/11 10:22:19;;;;;;;11.32;2.30;;;18.10;49.70;;;;;;4933106;29;20111;-78
2022/05/11 10:25:06;;;;;;;13.00;2.28;;;18.00;50.00;;;;;;4930096;29;20104;-77
2022/05/11 10:27:41;;;;;;;10.30;2.25;;;18.00;50.10;;;;;;4933760;29;20056;-76
2022/05/11 10:30:22;;;;;;;10.13;2.50;;;18.10;50.30;;;;;;4934203;29;20752;-77
2022/05/11 10:33:23;;;;;;;5.78;2.50;;;18.20;50.10;;;;;;4931342;29;20058;-77
2022/05/11 10:36:00;;;;;;;6.18;2.30;;;18.30;50.10;;;;;;4930775;29;20138;-77
2022/05/11 10:38:52;;;;;;;9.48;2.22;;;18.50;49.80;;;;;;4916884;29;20547;-76
2022/05/11 10:41:31;;;;;;;4.10;2.83;;;18.50;49.80;;;;;;4929927;29;20051;-76
2022/05/11 10:44:08;;;;;;;11.23;2.85;;;18.40;50.00;;;;;;4931044;29;20485;-77
2022/05/11 10:46:38;;;;;;;4.22;2.17;;;18.40;50.10;;;;;;4933192;29;20063;-77
2022/05/11 10:49:37;;;;;;;7.68;2.65;;;18.40;50.20;;;;;;4931991;29;20054;-79
2022/05/11 10:52:28;;;;;;;8.40;2.40;;;18.30;50.30;;;;;;4931113;29;20506;-79
2022/05/11 10:55:07;;;;;;;10.43;2.42;;;18.30;50.50;;;;;;4934139;29;20512;-79
2022/05/11 10:57:45;;;;;;;11.82;2.25;;;18.20;50.60;;;;;;4933011;29;20509;-80
2022/05/11 11:00:18;;;;;;;13.15;2.28;;;18.20;50.80;;;;;;4933040;29;20661;-82
2022/05/11 11:03:22;;;;;;;8.50;2.30;;;18.30;50.70;;;;;;4932968;29;20047;-79
2022/05/11 11:08:58;;;;;;;14.25;2.50;;;18.40;50.70;;;;;;4930525;29;20047;-77
2022/05/11 11:11:36;;;;;;;5.80;2.10;;;18.50;50.60;;;;;;4932897;29;20083;-79
2022/05/11 11:14:09;;;;;;;10.40;2.38;;;18.60;50.40;;;;;;4933283;29;20067;-80
2022/05/11 11:16:40;;;;;;;5.28;2.38;;;18.60;50.40;;;;;;4932314;29;20052;-78
2022/05/11 11:19:10;;;;;;;5.47;2.15;;;18.50;50.10;;;;;;4931539;29;20413;-79
2022/05/11 11:21:41;;;;;;;6.32;2.40;;;18.50;50.30;;;;;;4930448;29;20083;-78
2022/05/11 11:24:14;;;;;;;8.85;2.00;;;18.40;50.40;;;;;;4934848;29;20062;-80
2022/05/11 11:26:52;;;;;;;13.20;2.40;;;18.40;50.60;;;;;;4933062;29;20051;-79
2022/05/11 11:29:26;;;;;;;5.57;2.13;;;18.40;50.80;;;;;;4930817;29;20130;-80
2022/05/11 11:32:07;;;;;;;13.27;2.38;;;18.40;50.70;;;;;;4938189;29;20060;-80
2022/05/11 11:34:37;;;;;;;5.60;2.17;;;18.30;50.70;;;;;;4935627;29;20065;-80
2022/05/11 11:37:45;;;;;;;5.03;2.08;;;18.30;50.70;;;;;;4930668;29;20056;-80
2022/05/11 11:40:33;;;;;;;11.60;2.42;;;18.20;51.00;;;;;;4894068;29;20484;-78
2022/05/11 11:43:38;;;;;;;15.57;2.63;;;18.30;51.00;;;;;;4912233;29;20056;-79
2022/05/11 11:46:04;;;;;;;10.05;2.28;;;18.30;51.10;;;;;;4920939;29;20154;-78
2022/05/11 11:48:36;;;;;;;8.13;2.40;;;18.30;51.00;;;;;;4929023;29;20201;-80
2022/05/11 11:51:07;;;;;;;10.77;2.80;;;18.30;51.20;;;;;;4931904;29;20505;-79
2022/05/11 11:53:39;;;;;;;10.90;3.65;;;18.20;50.90;;;;;;4933417;29;20083;-79
2022/05/11 11:56:38;;;;;;;9.02;1.88;;;18.20;51.00;;;;;;4931260;29;20155;-78
2022/05/11 11:59:07;;;;;;;7.30;1.80;;;18.20;50.70;;;;;;4927144;29;20052;-76
2022/05/11 12:01:38;;;;;;;10.10;2.78;;;18.20;50.60;;;;;;4931379;29;20052;-77
2022/05/11 12:04:19;;;;;;;8.30;2.67;;;18.20;50.70;;;;;;4931583;29;20055;-78
2022/05/11 12:15:31;;;;;;;11.70;2.78;;;18.00;51.00;;;;;;4925537;29;20107;-78
2022/05/11 12:17:59;;;;;;;5.03;2.33;;;18.00;51.00;;;;;;4931390;29;20335;-76
2022/05/11 12:20:42;;;;;;;13.40;3.10;;;18.00;51.20;;;;;;4928478;29;20048;-79
2022/05/11 12:23:18;;;;;;;10.75;2.13;;;18.00;51.20;;;;;;4930111;29;20047;-73
2022/05/11 12:25:53;;;;;;;8.30;3.53;;;18.20;51.30;;;;;;4931109;29;20107;-74
2022/05/11 12:28:23;;;;;;;11.77;2.58;;;18.30;50.70;;;;;;4934367;29;20098;-75
2022/05/11 12:30:51;;;;;;;11.57;4.75;;;18.30;50.70;;;;;;4934958;29;20574;-75
2022/05/11 12:33:24;;;;;;;11.52;4.70;;;18.30;51.20;;;;;;4931269;29;20051;-75
2022/05/11 12:35:53;;;;;;;9.45;2.92;;;18.40;50.50;;;;;;4934723;29;20051;-78
2022/05/11 12:38:30;;;;;;;9.00;3.35;;;18.50;50.60;;;;;;4931820;29;20130;-76
2022/05/11 12:40:58;;;;;;;8.95;2.65;;;18.50;50.60;;;;;;4931147;29;20047;-77
2022/05/11 12:43:28;;;;;;;7.88;3.00;;;18.60;50.50;;;;;;4932577;29;20050;-75
2022/05/11 12:45:58;;;;;;;6.68;2.65;;;18.60;50.50;;;;;;4933882;29;20055;-78
2022/05/11 12:48:37;;;;;;;8.80;2.60;;;18.70;50.40;;;;;;4932387;29;20052;-74
2022/05/11 12:51:12;;;;;;;11.63;2.40;;;18.70;50.20;;;;;;4934051;29;20054;-74
2022/05/11 12:53:51;;;;;;;14.65;3.17;;;18.80;50.10;;;;;;4917685;29;20051;-75
2022/05/11 12:56:21;;;;;;;6.90;2.92;;;18.90;50.00;;;;;;4935805;29;20416;-74
2022/05/11 12:58:51;;;;;;;11.23;2.97;;;19.30;49.70;;;;;;4916198;29;20071;-78
2022/05/11 13:01:21;;;;;;;7.95;2.78;;;19.50;49.10;;;;;;4916299;29;20167;-76
2022/05/11 13:03:51;;;;;;;19.35;2.53;;;20.00;48.90;;;;;;4933124;29;20087;-75
2022/05/11 13:09:26;;;;;;;5.68;2.22;;;21.20;46.30;;;;;;4952364;28;20055;-77
2022/05/11 13:11:56;;;;;;;11.60;2.08;;;20.90;46.60;;;;;;4935366;29;20054;-78
2022/05/11 13:14:33;;;;;;;5.38;2.20;;;20.90;47.50;;;;;;4935172;29;20456;-76
2022/05/11 13:17:04;;;;;;;4.35;2.45;;;22.10;46.40;;;;;;4934939;29;20044;-78
2022/05/11 13:19:36;;;;;;;14.73;2.90;;;23.10;44.50;;;;;;4934294;29;20146;-75
2022/05/11 13:22:12;;;;;;;5.18;2.13;;;24.90;43.60;;;;;;4933565;29;20067;-75
2022/05/11 13:24:45;;;;;;;24.70;3.42;;;26.40;40.10;;;;;;4934885;29;20425;-76
2022/05/11 13:27:26;;;;;;;;;;;25.10;40.90;;;;;;4935686;29;20599;-77
2022/05/11 13:30:12;;;;;;;12.48;2.65;;;24.50;42.10;;;;;;4935759;29;20036;-77
2022/05/11 13:32:42;;;;;;;5.25;2.65;;;23.70;42.80;;;;;;4932561;29;20047;-80
2022/05/11 13:35:26;;;;;;;10.57;2.65;;;23.00;44.30;;;;;;4931945;29;20059;-79
2022/05/11 13:37:59;;;;;;;14.13;2.72;;;22.40;45.10;;;;;;4931048;28;20059;-78
2022/05/11 13:40:33;;;;;;;14.18;2.95;;;21.70;46.70;;;;;;4935479;29;20079;-80
2022/05/11 13:43:01;;;;;;;2.88;2.25;;;21.40;47.20;;;;;;4932390;29;20110;-79
2022/05/11 13:45:29;;;;;;;14.88;3.08;;;21.10;47.80;;;;;;4932533;29;20054;-79
2022/05/11 13:48:16;;;;;;;9.40;2.55;;;20.90;48.40;;;;;;4917940;29;20738;-78
2022/05/11 13:50:46;;;;;;;10.82;2.45;;;20.80;48.70;;;;;;4934129;29;20063;-78
2022/05/11 13:53:33;;;;;;;9.27;2.85;;;20.60;49.20;;;;;;4933904;29;20123;-77